createdAt,value
2022-12-11T00:01:12.365Z,0.13
2022-12-11T00:03:40.807Z,0.11
2022-12-11T00:06:11.896Z,0.11
2022-12-11T00:08:41.097Z,0.11
2022-12-11T00:11:10.762Z,0.12
2022-12-11T00:13:40.085Z,0.16
2022-12-11T00:16:09.274Z,0.18
2022-12-11T00:18:37.624Z,0.08
2022-12-11T00:21:07.909Z,0.12
2022-12-11T00:23:39.158Z,0.09
2022-12-11T00:26:09.065Z,0.07
2022-12-11T00:28:37.726Z,0.05
2022-12-11T00:31:07.156Z,0.09
2022-12-11T00:33:35.459Z,0.07
2022-12-11T00:36:03.973Z,0.03
2022-12-11T00:38:32.376Z,0.06
2022-12-11T00:41:02.056Z,0.07
2022-12-11T00:43:30.533Z,0.03
2022-12-11T00:46:01.868Z,0.00
2022-12-11T00:48:30.029Z,-0.01
2022-12-11T00:50:58.114Z,-0.05
2022-12-11T00:53:26.725Z,-0.04
2022-12-11T00:55:54.801Z,-0.07
2022-12-11T00:58:24.609Z,-0.11
2022-12-11T01:00:53.679Z,-0.08
2022-12-11T01:03:21.633Z,-0.14
2022-12-11T01:05:54.574Z,-0.16
2022-12-11T01:08:22.988Z,-0.12
2022-12-11T01:10:50.024Z,-0.16
2022-12-11T01:13:18.614Z,-0.21
2022-12-11T01:15:50.919Z,-0.20
2022-12-11T01:18:19.159Z,-0.17
2022-12-11T01:20:47.305Z,-0.20
2022-12-11T01:23:15.346Z,-0.19
2022-12-11T01:25:47.156Z,-0.23
2022-12-11T01:28:15.255Z,-0.25
2022-12-11T01:30:44.397Z,-0.22
2022-12-11T01:33:17.348Z,-0.21
2022-12-11T01:35:45.225Z,-0.20
2022-12-11T01:38:13.120Z,-0.22
2022-12-11T01:40:54.368Z,-0.25
2022-12-11T01:43:22.261Z,-0.27
2022-12-11T01:45:50.693Z,-0.27
2022-12-11T01:48:23.650Z,-0.32
2022-12-11T01:50:55.507Z,-0.33
2022-12-11T01:53:31.515Z,-0.36
2022-12-11T01:56:00.158Z,-0.36
2022-12-11T01:58:33.487Z,-0.31
2022-12-11T02:01:04.435Z,-0.30
2022-12-11T02:03:33.901Z,-0.27
2022-12-11T02:06:02.531Z,-0.20
2022-12-11T02:08:31.018Z,-0.11
2022-12-11T02:11:07.984Z,-0.20
2022-12-11T02:13:45.974Z,-0.21
2022-12-11T02:16:20.502Z,-0.24
2022-12-11T02:18:57.306Z,-0.29
2022-12-11T02:21:28.023Z,-0.29
2022-12-11T02:24:29.014Z,-0.25
2022-12-11T02:27:27.604Z,-0.19
2022-12-11T02:30:03.415Z,-0.15
2022-12-11T02:32:38.551Z,-0.14
2022-12-11T02:35:16.135Z,-0.09
2022-12-11T02:37:48.250Z,-0.07
2022-12-11T02:40:21.314Z,-0.04
2022-12-11T02:42:51.225Z,0.00
2022-12-11T02:45:22.193Z,0.01
2022-12-11T02:47:51.718Z,0.01
2022-12-11T02:50:23.922Z,0.00
2022-12-11T02:52:57.194Z,0.05
2022-12-11T02:55:28.368Z,0.06
2022-12-11T02:58:04.779Z,0.07
2022-12-11T03:00:34.846Z,0.05
2022-12-11T03:03:03.595Z,0.05
2022-12-11T03:05:32.577Z,0.05
2022-12-11T03:08:00.990Z,0.05
2022-12-11T03:10:28.962Z,0.07
2022-12-11T03:12:58.949Z,0.08
2022-12-11T03:15:36.671Z,0.11
2022-12-11T03:18:11.091Z,0.09
2022-12-11T03:20:42.636Z,0.07
2022-12-11T03:23:19.706Z,0.12
2022-12-11T03:25:55.099Z,0.10
2022-12-11T03:28:30.522Z,0.10
2022-12-11T03:31:05.776Z,0.00
2022-12-11T03:33:37.789Z,0.06
2022-12-11T03:36:10.256Z,0.03
2022-12-11T03:38:42.764Z,0.03
2022-12-11T03:41:13.356Z,0.08
2022-12-11T03:43:42.718Z,0.03
2022-12-11T03:46:15.195Z,0.03
2022-12-11T03:48:46.707Z,-0.04
2022-12-11T03:51:15.984Z,-0.03
2022-12-11T03:53:45.526Z,-0.03
2022-12-11T03:56:17.321Z,-0.02
2022-12-11T03:58:45.390Z,0.02
2022-12-11T04:01:14.735Z,-0.01
2022-12-11T04:03:42.859Z,-0.02
2022-12-11T04:06:11.154Z,-0.06
2022-12-11T04:08:39.280Z,-0.06
2022-12-11T04:11:24.743Z,-0.06
2022-12-11T04:14:12.619Z,-0.05
2022-12-11T04:16:41.493Z,-0.04
2022-12-11T04:19:28.170Z,-0.08
2022-12-11T04:22:28.367Z,-0.09
2022-12-11T04:24:56.513Z,-0.06
2022-12-11T04:27:42.218Z,-0.08
2022-12-11T04:30:15.569Z,-0.13
2022-12-11T04:32:46.004Z,-0.16
2022-12-11T04:35:14.794Z,-0.12
2022-12-11T04:37:43.391Z,-0.10
2022-12-11T04:40:15.891Z,-0.19
2022-12-11T04:42:44.145Z,-0.17
2022-12-11T04:45:13.378Z,-0.11
2022-12-11T04:47:42.355Z,-0.11
2022-12-11T04:50:13.269Z,-0.14
2022-12-11T04:52:41.467Z,-0.17
2022-12-11T04:55:11.769Z,-0.16
2022-12-11T04:57:40.681Z,-0.14
2022-12-11T05:00:12.726Z,-0.29
2022-12-11T05:02:42.204Z,-0.28
2022-12-11T05:05:13.268Z,-0.27
2022-12-11T05:07:42.163Z,-0.22
2022-12-11T05:10:13.871Z,-0.15
2022-12-11T05:12:41.789Z,-0.10
2022-12-11T05:15:10.620Z,-0.18
2022-12-11T05:17:39.407Z,-0.18
2022-12-11T05:20:08.541Z,-0.09
2022-12-11T05:22:40.866Z,-0.16
2022-12-11T05:25:09.926Z,-0.24
2022-12-11T05:27:37.984Z,-0.22
2022-12-11T05:30:07.226Z,-0.25
2022-12-11T05:32:35.202Z,-0.19
2022-12-11T05:35:03.913Z,-0.25
2022-12-11T05:37:34.259Z,-0.19
2022-12-11T05:40:06.292Z,-0.25
2022-12-11T05:42:34.305Z,-0.25
2022-12-11T05:45:02.423Z,-0.30
2022-12-11T05:47:31.693Z,-0.36
2022-12-11T05:50:01.203Z,-0.38
2022-12-11T05:52:29.643Z,-0.41
2022-12-11T05:54:57.604Z,-0.43
2022-12-11T05:57:27.456Z,-0.47
2022-12-11T05:59:55.427Z,-0.47
2022-12-11T06:02:23.753Z,-0.48
2022-12-11T06:04:52.657Z,-0.45
2022-12-11T06:07:21.010Z,-0.49
2022-12-11T06:09:48.974Z,-0.47
2022-12-11T06:12:17.410Z,-0.49
2022-12-11T06:14:46.683Z,-0.50
2022-12-11T06:17:14.571Z,-0.49
2022-12-11T06:19:42.940Z,-0.45
2022-12-11T06:22:11.371Z,-0.42
2022-12-11T06:24:39.638Z,-0.44
2022-12-11T06:27:07.917Z,-0.45
2022-12-11T06:29:35.907Z,-0.47
2022-12-11T06:32:05.717Z,-0.44
2022-12-11T06:34:34.076Z,-0.41
2022-12-11T06:37:02.549Z,-0.43
2022-12-11T06:39:31.526Z,-0.39
2022-12-11T06:41:59.528Z,-0.37
2022-12-11T06:44:27.569Z,-0.35
2022-12-11T06:46:55.710Z,-0.35
2022-12-11T06:49:25.726Z,-0.36
2022-12-11T06:51:53.660Z,-0.34
2022-12-11T06:54:21.988Z,-0.31
2022-12-11T06:56:50.516Z,-0.30
2022-12-11T06:59:19.038Z,-0.36
2022-12-11T07:01:49.847Z,-0.42
2022-12-11T07:04:18.133Z,-0.44
2022-12-11T07:06:49.250Z,-0.49
2022-12-11T07:09:17.915Z,-0.49
2022-12-11T07:11:46.460Z,-0.47
2022-12-11T07:14:14.837Z,-0.45
2022-12-11T07:16:43.205Z,-0.47
2022-12-11T07:19:11.147Z,-0.42
2022-12-11T07:21:39.670Z,-0.49
2022-12-11T07:24:10.428Z,-0.49
2022-12-11T07:26:38.493Z,-0.48
2022-12-11T07:29:06.474Z,-0.48
2022-12-11T07:31:34.504Z,-0.43
2022-12-11T07:34:04.841Z,-0.39
2022-12-11T07:36:33.675Z,-0.55
2022-12-11T07:39:02.937Z,-0.53
2022-12-11T07:41:32.279Z,-0.57
2022-12-11T07:44:01.413Z,-0.54
2022-12-11T07:46:31.635Z,-0.47
2022-12-11T07:49:00.947Z,-0.43
2022-12-11T07:51:32.011Z,-0.51
2022-12-11T07:54:02.319Z,-0.45
2022-12-11T07:56:34.582Z,-0.37
2022-12-11T07:59:05.519Z,-0.34
2022-12-11T08:01:36.773Z,-0.28
2022-12-11T08:04:06.034Z,-0.30
2022-12-11T08:06:35.758Z,-0.31
2022-12-11T08:09:06.414Z,-0.34
2022-12-11T08:11:38.380Z,-0.30
2022-12-11T08:14:09.307Z,-0.29
2022-12-11T08:16:40.401Z,-0.23
2022-12-11T08:19:11.519Z,-0.18
2022-12-11T08:21:40.535Z,-0.17
2022-12-11T08:24:10.187Z,-0.14
2022-12-11T08:26:40.068Z,-0.05
2022-12-11T08:29:10.590Z,-0.13
2022-12-11T08:31:39.037Z,-0.17
2022-12-11T08:34:07.644Z,-0.14
2022-12-11T08:36:35.751Z,-0.19
2022-12-11T08:39:03.675Z,-0.20
2022-12-11T08:41:32.661Z,-0.13
2022-12-11T08:44:02.470Z,-0.03
2022-12-11T08:46:33.473Z,0.04
2022-12-11T08:49:01.599Z,0.07
2022-12-11T08:51:31.019Z,0.16
2022-12-11T08:54:01.405Z,0.16
2022-12-11T08:56:31.308Z,0.07
2022-12-11T08:59:04.563Z,0.08
2022-12-11T09:01:34.699Z,0.09
2022-12-11T09:04:03.409Z,0.07
2022-12-11T09:06:34.500Z,0.11
2022-12-11T09:09:03.856Z,0.03
2022-12-11T09:11:35.566Z,0.00
2022-12-11T09:18:37.797Z,0.14
2022-12-11T09:21:09.283Z,0.08
2022-12-11T09:23:48.608Z,0.05
2022-12-11T09:26:20.305Z,0.02
2022-12-11T09:28:57.381Z,0.00
2022-12-11T09:31:28.232Z,0.06
2022-12-11T09:33:58.966Z,0.07
2022-12-11T09:36:28.766Z,0.13
2022-12-11T09:38:57.237Z,0.16
2022-12-11T09:41:36.633Z,0.22
2022-12-11T09:44:30.308Z,0.26
2022-12-11T09:46:58.745Z,0.24
2022-12-11T09:49:34.616Z,0.26
2022-12-11T09:52:13.814Z,0.28
2022-12-11T09:54:49.899Z,0.28
2022-12-11T09:57:31.078Z,0.27
2022-12-11T10:00:10.023Z,0.29
2022-12-11T10:02:51.831Z,0.39
2022-12-11T10:05:28.447Z,0.33
2022-12-11T10:08:03.022Z,0.34
2022-12-11T10:10:42.913Z,0.30
2022-12-11T10:13:22.591Z,0.17
2022-12-11T10:15:56.334Z,0.22
2022-12-11T10:21:24.440Z,0.16
2022-12-11T10:23:59.893Z,0.22
2022-12-11T10:26:31.340Z,0.18
2022-12-11T10:29:01.662Z,0.21
2022-12-11T10:31:36.933Z,0.19
2022-12-11T10:34:10.075Z,0.17
2022-12-11T10:36:40.312Z,0.16
2022-12-11T10:39:16.122Z,0.12
2022-12-11T10:41:46.817Z,0.18
2022-12-11T10:44:20.002Z,0.06
2022-12-11T10:46:49.380Z,0.20
2022-12-11T10:49:25.939Z,0.07
2022-12-11T10:51:55.924Z,0.14
2022-12-11T10:54:33.554Z,0.22
2022-12-11T10:57:03.980Z,0.27
2022-12-11T10:59:37.281Z,0.32
2022-12-11T11:02:07.039Z,0.30
2022-12-11T11:04:38.061Z,0.30
2022-12-11T11:07:14.090Z,0.39
2022-12-11T11:09:43.654Z,0.44
2022-12-11T11:12:21.715Z,0.40
2022-12-11T11:15:00.552Z,0.47
2022-12-11T11:17:33.796Z,0.58
2022-12-11T11:20:13.151Z,0.65
2022-12-11T11:22:45.997Z,0.70
2022-12-11T11:25:21.142Z,0.75
2022-12-11T11:27:56.065Z,0.77
2022-12-11T11:30:25.881Z,0.75
2022-12-11T11:32:56.892Z,0.82
2022-12-11T11:35:26.963Z,0.80
2022-12-11T11:38:01.866Z,0.85
2022-12-11T11:40:35.438Z,0.79
2022-12-11T11:43:15.626Z,0.79
2022-12-11T11:45:47.950Z,0.82
2022-12-11T11:48:30.207Z,0.83
2022-12-11T11:50:59.200Z,0.87
2022-12-11T11:53:33.398Z,0.89
2022-12-11T11:56:15.684Z,0.81
2022-12-11T11:58:50.175Z,0.88
2022-12-11T12:01:21.607Z,0.74
2022-12-11T12:03:52.029Z,0.75
2022-12-11T12:06:38.457Z,0.80
2022-12-11T12:09:25.139Z,0.88
2022-12-11T12:12:00.140Z,0.79
2022-12-11T12:14:51.989Z,0.76
2022-12-11T12:17:27.871Z,0.64
2022-12-11T12:20:04.695Z,0.70
2022-12-11T12:22:49.652Z,0.63
2022-12-11T12:25:23.890Z,0.54
2022-12-11T12:28:01.287Z,0.49
2022-12-11T12:30:38.783Z,0.44
2022-12-11T12:33:20.904Z,0.45
2022-12-11T12:36:00.886Z,0.44
2022-12-11T12:38:41.902Z,0.50
2022-12-11T12:41:20.025Z,0.50
2022-12-11T12:44:13.409Z,0.53
2022-12-11T12:46:52.201Z,0.59
2022-12-11T12:49:31.544Z,0.51
2022-12-11T12:52:01.698Z,0.42
2022-12-11T12:54:31.384Z,0.40
2022-12-11T12:57:00.802Z,0.40
2022-12-11T12:59:30.628Z,0.48
2022-12-11T13:02:01.488Z,0.43
2022-12-11T13:07:30.242Z,0.37
2022-12-11T13:10:01.901Z,0.35
2022-12-11T13:12:35.369Z,0.29
2022-12-11T13:15:05.466Z,0.28
2022-12-11T13:17:39.181Z,0.22
2022-12-11T13:20:18.245Z,0.21
2022-12-11T13:22:52.963Z,0.26
2022-12-11T13:25:30.321Z,0.26
2022-12-11T13:28:08.887Z,0.28
2022-12-11T13:30:38.914Z,0.25
2022-12-11T13:33:08.814Z,0.36
2022-12-11T13:35:37.099Z,0.35
2022-12-11T13:38:09.563Z,0.36
2022-12-11T13:40:42.679Z,0.34
2022-12-11T13:43:20.087Z,0.36
2022-12-11T13:45:52.161Z,0.43
2022-12-11T13:48:24.784Z,0.47
2022-12-11T13:50:53.712Z,0.52
2022-12-11T13:53:23.105Z,0.49
2022-12-11T13:55:58.993Z,0.36
2022-12-11T13:58:27.498Z,0.38
2022-12-11T14:01:07.679Z,0.47
2022-12-11T14:03:37.057Z,0.44
2022-12-11T14:06:05.438Z,0.40
2022-12-11T14:08:37.704Z,0.43
2022-12-11T14:11:06.730Z,0.45
2022-12-11T14:13:36.574Z,0.48
2022-12-11T14:16:08.737Z,0.43
2022-12-11T14:18:37.882Z,0.43
2022-12-11T14:21:07.501Z,0.43
2022-12-11T14:23:37.664Z,0.44
2022-12-11T14:26:19.041Z,0.45
2022-12-11T14:28:47.522Z,0.43
2022-12-11T14:31:23.195Z,0.46
2022-12-11T14:33:55.972Z,0.51
2022-12-11T14:36:24.925Z,0.35
2022-12-11T14:38:57.266Z,0.32
2022-12-11T14:41:31.044Z,0.18
2022-12-11T14:44:02.150Z,0.18
2022-12-11T14:46:38.504Z,0.07
2022-12-11T14:49:18.908Z,-0.13
2022-12-11T14:51:48.063Z,-0.13
2022-12-11T14:54:28.288Z,-0.07
2022-12-11T14:56:56.936Z,-0.06
2022-12-11T14:59:31.741Z,-0.09
2022-12-11T15:02:05.051Z,-0.11
2022-12-11T15:04:34.542Z,-0.04
2022-12-11T15:07:02.435Z,-0.02
2022-12-11T15:09:38.739Z,-0.05
2022-12-11T15:12:12.456Z,-0.08
2022-12-11T15:14:48.491Z,-0.14
2022-12-11T15:17:18.874Z,-0.16
2022-12-11T15:19:51.557Z,-0.19
2022-12-11T15:22:23.831Z,-0.22
2022-12-11T15:24:54.475Z,-0.21
2022-12-11T15:27:27.445Z,-0.25
2022-12-11T15:29:55.676Z,-0.25
2022-12-11T15:32:25.458Z,-0.31
2022-12-11T15:34:55.382Z,-0.26
2022-12-11T15:37:25.531Z,-0.32
2022-12-11T15:39:54.578Z,-0.31
2022-12-11T15:42:27.548Z,-0.29
2022-12-11T15:44:56.556Z,-0.20
2022-12-11T15:47:28.612Z,-0.34
2022-12-11T15:49:59.303Z,-0.31
2022-12-11T15:52:27.240Z,-0.31
2022-12-11T15:54:55.740Z,-0.18
2022-12-11T15:57:25.719Z,-0.25
2022-12-11T15:59:56.268Z,-0.23
2022-12-11T16:02:26.761Z,-0.22
2022-12-11T16:04:55.346Z,-0.24
2022-12-11T16:07:25.272Z,-0.26
2022-12-11T16:09:53.651Z,-0.17
2022-12-11T16:12:21.757Z,-0.29
2022-12-11T16:14:50.217Z,-0.27
2022-12-11T16:17:18.152Z,-0.21
2022-12-11T16:19:47.632Z,-0.30
2022-12-11T16:22:16.434Z,-0.32
2022-12-11T16:24:44.512Z,-0.29
2022-12-11T16:27:12.588Z,-0.38
2022-12-11T16:29:43.042Z,-0.31
2022-12-11T16:32:11.594Z,-0.39
2022-12-11T16:34:39.713Z,-0.33
2022-12-11T16:37:10.777Z,-0.39
2022-12-11T16:39:39.904Z,-0.35
2022-12-11T16:42:08.224Z,-0.31
2022-12-11T16:44:41.029Z,-0.25
2022-12-11T16:47:11.779Z,-0.20
2022-12-11T16:49:41.276Z,-0.35
2022-12-11T16:52:10.793Z,-0.39
2022-12-11T16:54:38.853Z,-0.31
2022-12-11T16:57:07.411Z,-0.37
2022-12-11T16:59:37.734Z,-0.39
2022-12-11T17:02:06.534Z,-0.45
2022-12-11T17:04:35.022Z,-0.42
2022-12-11T17:07:04.023Z,-0.37
2022-12-11T17:09:33.457Z,-0.41
2022-12-11T17:12:01.601Z,-0.38
2022-12-11T17:14:29.766Z,-0.34
2022-12-11T17:16:58.707Z,-0.31
2022-12-11T17:19:27.107Z,-0.31
2022-12-11T17:21:56.186Z,-0.29
2022-12-11T17:24:24.231Z,-0.29
2022-12-11T17:26:56.125Z,-0.24
2022-12-11T17:29:24.371Z,-0.17
2022-12-11T17:31:52.878Z,-0.18
2022-12-11T17:34:20.945Z,-0.24
2022-12-11T17:36:49.250Z,-0.28
2022-12-11T17:39:18.908Z,-0.32
2022-12-11T17:41:47.106Z,-0.27
2022-12-11T17:44:16.643Z,-0.32
2022-12-11T17:46:44.587Z,-0.36
2022-12-11T17:49:13.193Z,-0.35
2022-12-11T17:51:41.195Z,-0.31
2022-12-11T17:54:09.237Z,-0.29
2022-12-11T17:56:37.453Z,-0.24
2022-12-11T17:59:05.948Z,-0.25
2022-12-11T18:01:35.423Z,-0.30
2022-12-11T18:04:03.722Z,-0.31
2022-12-11T18:06:32.388Z,-0.29
2022-12-11T18:09:01.847Z,-0.31
2022-12-11T18:11:29.788Z,-0.31
2022-12-11T18:13:59.305Z,-0.23
2022-12-11T18:16:29.759Z,-0.34
2022-12-11T18:18:59.296Z,-0.40
2022-12-11T18:21:30.678Z,-0.40
2022-12-11T18:23:59.089Z,-0.39
2022-12-11T18:26:28.014Z,-0.37
2022-12-11T18:28:55.969Z,-0.35
2022-12-11T18:31:25.232Z,-0.34
2022-12-11T18:33:53.808Z,-0.26
2022-12-11T18:36:23.634Z,-0.28
2022-12-11T18:38:52.093Z,-0.31
2022-12-11T18:41:20.758Z,-0.23
2022-12-11T18:43:49.182Z,-0.24
2022-12-11T18:46:19.126Z,-0.30
2022-12-11T18:48:47.515Z,-0.30
2022-12-11T18:51:18.595Z,-0.35
2022-12-11T18:53:47.915Z,-0.35
2022-12-11T18:56:19.196Z,-0.36
2022-12-11T18:58:48.110Z,-0.37
2022-12-11T19:01:20.321Z,-0.37
2022-12-11T19:03:49.061Z,-0.32
2022-12-11T19:06:20.304Z,-0.32
2022-12-11T19:08:49.732Z,-0.34
2022-12-11T19:11:19.196Z,-0.32
2022-12-11T19:13:48.183Z,-0.32
2022-12-11T19:16:17.896Z,-0.32
2022-12-11T19:18:46.774Z,-0.31
2022-12-11T19:21:16.081Z,-0.36
2022-12-11T19:23:45.612Z,-0.32
2022-12-11T19:26:19.580Z,-0.36
2022-12-11T19:28:48.027Z,-0.40
2022-12-11T19:31:18.246Z,-0.42
2022-12-11T19:33:47.469Z,-0.43
2022-12-11T19:36:21.753Z,-0.44
2022-12-11T19:38:50.814Z,-0.47
2022-12-11T19:41:22.029Z,-0.50
2022-12-11T19:43:51.035Z,-0.52
2022-12-11T19:46:20.225Z,-0.54
2022-12-11T19:48:50.108Z,-0.61
2022-12-11T19:51:20.229Z,-0.67
2022-12-11T19:53:51.285Z,-0.70
2022-12-11T19:56:22.203Z,-0.70
2022-12-11T19:58:51.018Z,-0.66
2022-12-11T20:01:25.284Z,-0.68
2022-12-11T20:03:53.951Z,-0.68
2022-12-11T20:06:22.376Z,-0.66
2022-12-11T20:08:50.996Z,-0.62
2022-12-11T20:11:20.865Z,-0.63
2022-12-11T20:13:49.904Z,-0.66
2022-12-11T20:16:28.891Z,-0.63
2022-12-11T20:19:08.402Z,-0.64
2022-12-11T20:21:37.432Z,-0.61
2022-12-11T20:24:06.021Z,-0.60
2022-12-11T20:26:36.960Z,-0.62
2022-12-11T20:29:08.064Z,-0.64
2022-12-11T20:31:37.159Z,-0.64
2022-12-11T20:34:05.703Z,-0.67
2022-12-11T20:36:34.533Z,-0.70
2022-12-11T20:39:02.609Z,-0.70
2022-12-11T20:41:30.775Z,-0.68
2022-12-11T20:44:00.475Z,-0.69
2022-12-11T20:46:28.949Z,-0.73
2022-12-11T20:48:58.823Z,-0.72
2022-12-11T20:51:27.694Z,-0.80
2022-12-11T20:53:59.356Z,-0.80
2022-12-11T20:56:29.928Z,-0.78
2022-12-11T20:59:00.986Z,-0.76
2022-12-11T21:01:31.635Z,-0.74
2022-12-11T21:04:00.733Z,-0.74
2022-12-11T21:06:31.857Z,-0.73
2022-12-11T21:09:01.229Z,-0.70
2022-12-11T21:11:30.276Z,-0.72
2022-12-11T21:13:59.569Z,-0.69
2022-12-11T21:16:29.367Z,-0.67
2022-12-11T21:18:57.668Z,-0.64
2022-12-11T21:21:26.098Z,-0.64
2022-12-11T21:23:54.528Z,-0.62
2022-12-11T21:26:22.406Z,-0.61
2022-12-11T21:28:50.254Z,-0.61
2022-12-11T21:31:20.959Z,-0.58
2022-12-11T21:33:53.030Z,-0.56
2022-12-11T21:36:21.442Z,-0.55
2022-12-11T21:38:49.397Z,-0.55
2022-12-11T21:41:19.511Z,-0.54
2022-12-11T21:46:39.929Z,-0.54
2022-12-11T21:49:08.846Z,-0.56
2022-12-11T21:51:42.667Z,-0.57
2022-12-11T21:54:18.547Z,-0.55
2022-12-11T21:56:47.437Z,-0.60
2022-12-11T21:59:15.995Z,-0.61
2022-12-11T22:01:47.391Z,-0.62
2022-12-11T22:04:16.706Z,-0.60
2022-12-11T22:06:47.477Z,-0.57
2022-12-11T22:09:17.856Z,-0.59
2022-12-11T22:11:47.877Z,-0.57
2022-12-11T22:14:18.254Z,-0.55
2022-12-11T22:16:48.127Z,-0.53
2022-12-11T22:19:16.087Z,-0.49
2022-12-11T22:21:44.132Z,-0.55
2022-12-11T22:24:12.092Z,-0.55
2022-12-11T22:26:40.726Z,-0.55
2022-12-11T22:29:08.670Z,-0.53
2022-12-11T22:31:37.068Z,-0.53
2022-12-11T22:34:06.330Z,-0.55
2022-12-11T22:36:34.246Z,-0.52
2022-12-11T22:39:03.182Z,-0.52
2022-12-11T22:41:33.673Z,-0.45
2022-12-11T22:44:04.098Z,-0.51
2022-12-11T22:46:32.101Z,-0.50
2022-12-11T22:49:00.587Z,-0.44
2022-12-11T22:51:29.971Z,-0.47
2022-12-11T22:53:59.772Z,-0.48
2022-12-11T22:56:28.094Z,-0.48
2022-12-11T22:58:57.341Z,-0.49
2022-12-11T23:01:28.670Z,-0.49
2022-12-11T23:03:56.564Z,-0.48
2022-12-11T23:06:27.340Z,-0.50
2022-12-11T23:08:58.926Z,-0.50
2022-12-11T23:11:29.210Z,-0.49
2022-12-11T23:13:57.874Z,-0.48
2022-12-11T23:16:26.989Z,-0.52
2022-12-11T23:18:55.171Z,-0.52
2022-12-11T23:21:24.214Z,-0.51
2022-12-11T23:23:52.490Z,-0.50
2022-12-11T23:26:23.874Z,-0.50
2022-12-11T23:28:52.826Z,-0.47
2022-12-11T23:31:20.917Z,-0.47
2022-12-11T23:33:49.198Z,-0.44
2022-12-11T23:36:17.538Z,-0.44
2022-12-11T23:38:50.967Z,-0.43
2022-12-11T23:41:24.254Z,-0.45
2022-12-11T23:43:52.803Z,-0.45
2022-12-11T23:46:25.470Z,-0.45
2022-12-11T23:48:54.329Z,-0.48
2022-12-11T23:51:24.774Z,-0.48
2022-12-11T23:53:53.639Z,-0.49
2022-12-11T23:56:25.481Z,-0.48
2022-12-11T23:58:54.377Z,-0.48
